Time;durP1;ratioP1;P1;durP2;ratioP2;P2;SDS_P1;SDS_P2;PMS_P1;PMS_P2;Temp;Humidity;BMP_temperature;BMP_pressure;BME280_temperature;BME280_humidity;BME280_pressure;Samples;Min_cycle;Max_cycle;Signal;HPM_P1;HPM_P2
2022/11/24 00:01:53;;;;;;;14.13;3.50;;;8.50;88.20;;;;;;4990861;28;20030;-50
2022/11/24 00:04:19;;;;;;;17.20;3.63;;;8.50;88.40;;;;;;4990213;28;20485;-49
2022/11/24 00:06:53;;;;;;;15.43;3.38;;;8.60;88.10;;;;;;4990805;28;20042;-51
2022/11/24 00:09:19;;;;;;;23.27;3.45;;;8.50;88.30;;;;;;4991674;28;20507;-50
2022/11/24 00:11:45;;;;;;;20.63;3.88;;;8.50;88.30;;;;;;4994179;28;20049;-48
2022/11/24 00:14:11;;;;;;;10.23;2.35;;;8.50;88.10;;;;;;4994164;28;20022;-50
2022/11/24 00:16:37;;;;;;;13.30;2.45;;;8.50;88.10;;;;;;4994395;28;20031;-49
2022/11/24 00:19:07;;;;;;;20.83;4.63;;;8.50;88.20;;;;;;4994091;28;20033;-48
2022/11/24 00:21:34;;;;;;;;;;;8.40;88.20;;;;;;4994739;28;20113;-48
2022/11/24 00:23:59;;;;;;;9.00;3.35;;;8.50;88.30;;;;;;4994112;28;19909;-52
2022/11/24 00:26:26;;;;;;;23.13;4.80;;;8.40;88.30;;;;;;4994532;28;20516;-53
2022/11/24 00:28:53;;;;;;;9.77;2.50;;;8.40;88.30;;;;;;4993882;28;20034;-48
2022/11/24 00:31:30;;;;;;;15.45;3.80;;;8.40;88.30;;;;;;4993958;28;20049;-48
2022/11/24 00:33:57;;;;;;;18.08;3.60;;;8.40;88.10;;;;;;4994105;28;20022;-50
2022/11/24 00:36:25;;;;;;;22.50;5.55;;;8.30;88.50;;;;;;4993894;28;20034;-51
2022/11/24 00:39:14;;;;;;;26.60;5.45;;;8.30;88.50;;;;;;4993799;28;20360;-50
2022/11/24 00:41:40;;;;;;;15.00;4.03;;;8.30;88.70;;;;;;4994198;28;20167;-50
2022/11/24 00:44:06;;;;;;;14.73;3.50;;;8.20;88.80;;;;;;4993821;28;20429;-50
2022/11/24 00:46:32;;;;;;;24.75;3.88;;;8.30;88.80;;;;;;4993828;28;20047;-50
2022/11/24 00:48:59;;;;;;;18.10;4.95;;;8.30;88.40;;;;;;4994119;28;20031;-49
2022/11/24 00:51:26;;;;;;;19.73;3.72;;;8.20;88.50;;;;;;4993589;28;20027;-51
2022/11/24 00:53:53;;;;;;;17.17;3.03;;;8.20;88.60;;;;;;4993674;28;20080;-51
2022/11/24 00:56:18;;;;;;;17.42;4.32;;;8.10;88.50;;;;;;4993782;28;20022;-50
2022/11/24 00:58:44;;;;;;;17.50;5.70;;;8.10;89.00;;;;;;4993510;28;20520;-50
2022/11/24 01:01:16;;;;;;;13.38;4.80;;;8.10;89.00;;;;;;4993428;28;20027;-51
2022/11/24 01:03:41;;;;;;;19.05;4.53;;;8.20;89.10;;;;;;4993528;28;20027;-49
2022/11/24 01:06:13;;;;;;;9.23;3.47;;;8.20;88.70;;;;;;4992466;28;20054;-48
2022/11/24 01:08:40;;;;;;;22.45;4.00;;;8.10;88.70;;;;;;4993531;28;20111;-49
2022/11/24 01:11:07;;;;;;;24.67;3.30;;;8.10;88.90;;;;;;4993451;28;20382;-49
2022/11/24 01:13:32;;;;;;;18.30;3.17;;;8.10;88.70;;;;;;4993700;28;20022;-47
2022/11/24 01:15:58;;;;;;;15.15;4.97;;;8.30;88.40;;;;;;4992207;28;20033;-50
2022/11/24 01:18:24;;;;;;;26.67;4.05;;;8.10;88.30;;;;;;4993540;28;20106;-50
2022/11/24 01:20:49;;;;;;;22.17;3.45;;;8.20;88.30;;;;;;4992873;28;20030;-48
2022/11/24 01:23:15;;;;;;;5.30;2.60;;;8.20;88.20;;;;;;4993698;28;20109;-51
2022/11/24 01:25:40;;;;;;;6.57;2.80;;;8.30;88.00;;;;;;4992702;28;20030;-51
2022/11/24 01:28:06;;;;;;;18.40;3.85;;;8.20;87.70;;;;;;4993053;28;20059;-50
2022/11/24 01:30:32;;;;;;;16.42;4.72;;;8.20;88.00;;;;;;4993083;28;20026;-49
2022/11/24 01:32:57;;;;;;;15.77;3.88;;;8.30;87.80;;;;;;4991866;28;20435;-50
2022/11/24 01:35:23;;;;;;;13.15;3.42;;;8.20;87.60;;;;;;4992193;28;20023;-49
2022/11/24 01:37:48;;;;;;;24.25;4.03;;;8.20;87.70;;;;;;4992946;28;20022;-50
2022/11/24 01:40:14;;;;;;;11.00;3.80;;;8.20;87.80;;;;;;4993055;28;20054;-50
2022/11/24 01:42:49;;;;;;;15.57;3.17;;;8.20;87.90;;;;;;4993174;28;20037;-50
2022/11/24 01:45:40;;;;;;;20.17;3.42;;;8.20;87.50;;;;;;4992928;28;20035;-50
2022/11/24 01:48:13;;;;;;;12.52;2.97;;;8.10;88.00;;;;;;4995412;28;20054;-48
2022/11/24 01:50:40;;;;;;;19.60;4.55;;;8.00;88.20;;;;;;4993143;28;20014;-48
2022/11/24 01:53:06;;;;;;;20.40;4.13;;;8.10;88.00;;;;;;4991529;28;20023;-53
2022/11/24 01:55:37;;;;;;;14.38;3.78;;;8.10;88.00;;;;;;4992631;28;20026;-50
2022/11/24 01:58:09;;;;;;;18.55;4.28;;;8.00;88.10;;;;;;4992977;28;20037;-49
2022/11/24 02:00:37;;;;;;;19.38;3.33;;;8.00;88.30;;;;;;4993165;28;20030;-49
2022/11/24 02:03:03;;;;;;;33.95;4.25;;;7.80;88.30;;;;;;4991264;28;20037;-49
2022/11/24 02:05:58;;;;;;;24.00;6.22;;;8.00;88.50;;;;;;4992589;28;20397;-51
2022/11/24 02:08:51;;;;;;;17.75;3.47;;;8.10;87.90;;;;;;4993485;28;20516;-51
2022/11/24 02:11:18;;;;;;;19.70;2.72;;;8.20;87.80;;;;;;4992748;28;20031;-54
2022/11/24 02:13:45;;;;;;;11.20;4.85;;;8.20;87.80;;;;;;4991056;28;20058;-54
2022/11/24 02:16:11;;;;;;;19.38;3.47;;;8.30;87.60;;;;;;4992478;28;20363;-49
2022/11/24 02:18:38;;;;;;;21.40;4.65;;;8.30;87.40;;;;;;4992324;28;20421;-49
2022/11/24 02:21:06;;;;;;;19.08;4.78;;;8.30;87.30;;;;;;4990873;28;20117;-48
2022/11/24 02:23:43;;;;;;;14.55;3.78;;;8.30;87.40;;;;;;4991098;28;20119;-52
2022/11/24 02:26:38;;;;;;;21.08;4.25;;;8.20;87.40;;;;;;4992500;28;20088;-50
2022/11/24 02:29:05;;;;;;;22.05;4.65;;;8.10;87.60;;;;;;4992255;28;20121;-49
2022/11/24 02:31:31;;;;;;;20.25;3.55;;;8.10;87.80;;;;;;4991227;28;20074;-48
2022/11/24 02:33:57;;;;;;;16.75;3.47;;;8.20;87.60;;;;;;4992066;28;20027;-49
2022/11/24 02:36:23;;;;;;;10.10;2.92;;;8.20;87.60;;;;;;4992175;28;20025;-48
2022/11/24 02:38:48;;;;;;;22.20;3.70;;;8.10;87.80;;;;;;4992137;28;20026;-50
2022/11/24 02:41:18;;;;;;;18.48;3.50;;;8.00;87.70;;;;;;4992101;28;20061;-48
2022/11/24 02:43:57;;;;;;;20.58;3.47;;;7.90;88.00;;;;;;4991082;28;20038;-49
2022/11/24 02:46:24;;;;;;;24.83;3.65;;;8.00;88.20;;;;;;4991785;28;20035;-49
2022/11/24 02:48:49;;;;;;;13.85;3.30;;;8.10;87.90;;;;;;4992203;28;20117;-52
2022/11/24 02:51:15;;;;;;;18.20;3.15;;;8.00;87.90;;;;;;4990674;28;20090;-52
2022/11/24 02:53:41;;;;;;;29.30;4.82;;;8.00;88.10;;;;;;4990630;28;20025;-48
2022/11/24 02:56:07;;;;;;;16.02;3.55;;;8.20;87.70;;;;;;4990548;28;20023;-50
2022/11/24 02:58:32;;;;;;;19.65;3.28;;;8.10;87.50;;;;;;4991761;28;20091;-48
2022/11/24 03:00:58;;;;;;;10.07;3.05;;;8.00;87.80;;;;;;4991786;28;20031;-51
2022/11/24 03:03:25;;;;;;;18.88;3.17;;;8.20;87.40;;;;;;4991813;28;20084;-50
2022/11/24 03:05:51;;;;;;;20.63;4.55;;;8.20;87.10;;;;;;4991517;28;20026;-49
2022/11/24 03:08:16;;;;;;;10.77;3.55;;;8.20;87.20;;;;;;4991444;28;20100;-49
2022/11/24 03:10:42;;;;;;;17.00;4.55;;;8.20;87.10;;;;;;4991814;28;20050;-48
2022/11/24 03:13:07;;;;;;;20.45;4.75;;;8.20;87.30;;;;;;4991515;28;20058;-49
2022/11/24 03:15:33;;;;;;;21.35;5.35;;;8.30;87.20;;;;;;4990834;28;20026;-49
2022/11/24 03:17:59;;;;;;;17.65;3.67;;;8.50;86.20;;;;;;4991741;28;20041;-48
2022/11/24 03:20:25;;;;;;;20.20;4.53;;;8.40;86.30;;;;;;4991411;28;20022;-49
2022/11/24 03:22:51;;;;;;;23.00;4.20;;;8.70;85.60;;;;;;4974030;28;20037;-48
2022/11/24 03:25:17;;;;;;;25.10;5.13;;;8.70;85.60;;;;;;4990239;28;20026;-50
2022/11/24 03:27:43;;;;;;;21.33;3.67;;;8.70;85.70;;;;;;4991558;28;20113;-49
2022/11/24 03:30:09;;;;;;;20.08;3.75;;;8.60;85.50;;;;;;4991290;28;20050;-48
2022/11/24 03:32:35;;;;;;;21.90;4.07;;;8.70;85.50;;;;;;4991303;28;20037;-48
2022/11/24 03:35:00;;;;;;;20.38;3.38;;;8.70;85.50;;;;;;4991670;28;20374;-49
2022/11/24 03:37:27;;;;;;;14.07;4.57;;;8.60;85.50;;;;;;4991451;28;20049;-49
2022/11/24 03:39:52;;;;;;;17.58;3.92;;;8.70;85.40;;;;;;4991093;28;20367;-49
2022/11/24 03:42:18;;;;;;;14.50;2.78;;;8.60;85.30;;;;;;4991235;28;20030;-48
2022/11/24 03:44:43;;;;;;;19.75;3.05;;;8.60;85.80;;;;;;4991006;28;20034;-48
2022/11/24 03:47:10;;;;;;;23.35;3.65;;;8.70;85.70;;;;;;4990888;28;20453;-50
2022/11/24 03:49:36;;;;;;;17.42;4.15;;;8.70;85.80;;;;;;4991086;28;20026;-52
2022/11/24 03:52:02;;;;;;;23.15;4.75;;;8.60;85.80;;;;;;4991311;28;20030;-49
2022/11/24 03:54:27;;;;;;;39.58;5.03;;;8.70;85.70;;;;;;4991016;28;20023;-50
2022/11/24 03:56:53;;;;;;;17.42;4.85;;;8.70;85.40;;;;;;4991302;28;20028;-48
2022/11/24 03:59:18;;;;;;;17.17;4.10;;;8.70;85.50;;;;;;4991065;28;20105;-52
2022/11/24 04:01:44;;;;;;;20.48;3.60;;;8.60;86.00;;;;;;4990929;28;20023;-48
2022/11/24 04:04:11;;;;;;;14.93;3.47;;;8.50;86.10;;;;;;4990885;28;20493;-49
2022/11/24 04:06:37;;;;;;;16.58;4.60;;;8.60;86.10;;;;;;4991154;28;20027;-50
2022/11/24 04:09:03;;;;;;;42.78;6.53;;;8.60;86.00;;;;;;4990893;28;20027;-49
2022/11/24 04:14:13;;;;;;;23.55;4.72;;;8.70;86.00;;;;;;4990723;28;20038;-48
2022/11/24 04:16:38;;;;;;;20.05;3.72;;;8.80;85.50;;;;;;4990804;28;20023;-49
2022/11/24 04:19:05;;;;;;;20.50;4.80;;;8.80;85.50;;;;;;4990751;28;20493;-52
2022/11/24 04:21:31;;;;;;;17.17;4.03;;;8.80;85.30;;;;;;4990906;28;20030;-50
2022/11/24 04:23:56;;;;;;;21.50;3.92;;;8.90;85.10;;;;;;4990979;28;20029;-49
2022/11/24 04:26:22;;;;;;;15.38;3.58;;;9.00;84.90;;;;;;4990790;28;20471;-49
2022/11/24 04:28:47;;;;;;;20.05;3.45;;;9.00;84.90;;;;;;4991267;28;20027;-53
2022/11/24 04:31:13;;;;;;;14.55;3.38;;;9.00;84.90;;;;;;4990871;28;20022;-51
2022/11/24 04:33:39;;;;;;;13.82;3.35;;;9.00;84.60;;;;;;4991082;28;20034;-51
2022/11/24 04:36:05;;;;;;;16.63;3.60;;;9.10;84.30;;;;;;4990971;28;20023;-50
2022/11/24 04:38:30;;;;;;;18.73;4.82;;;9.10;84.30;;;;;;4990380;28;20033;-48
2022/11/24 04:41:01;;;;;;;21.52;3.78;;;9.20;84.40;;;;;;4989326;28;20117;-50
2022/11/24 04:43:26;;;;;;;;;;;9.10;84.40;;;;;;4990826;28;20026;-47
2022/11/24 04:45:52;;;;;;;12.65;3.47;;;9.20;84.40;;;;;;4990343;28;19906;-48
2022/11/24 04:48:18;;;;;;;20.13;4.07;;;9.20;84.70;;;;;;4990113;28;20406;-50
2022/11/24 04:50:43;;;;;;;19.45;4.15;;;9.20;85.00;;;;;;4990226;28;20023;-50
2022/11/24 04:53:10;;;;;;;24.65;5.75;;;9.00;85.50;;;;;;4990534;28;20443;-50
2022/11/24 04:55:38;;;;;;;22.83;3.67;;;9.10;85.60;;;;;;4991131;28;20105;-50
2022/11/24 04:58:07;;;;;;;26.75;4.22;;;9.00;86.00;;;;;;4993497;28;20022;-51
2022/11/24 05:00:33;;;;;;;16.98;3.78;;;9.00;86.30;;;;;;4993399;28;20045;-48
2022/11/24 05:02:59;;;;;;;18.60;4.22;;;9.00;86.80;;;;;;4993732;28;20049;-49
2022/11/24 05:05:24;;;;;;;21.73;4.40;;;8.90;87.00;;;;;;4993435;28;20033;-51
2022/11/24 05:07:50;;;;;;;14.13;4.72;;;8.90;87.30;;;;;;4993200;28;20030;-49
2022/11/24 05:13:12;;;;;;;19.33;4.00;;;8.90;87.20;;;;;;4992705;28;20026;-51
2022/11/24 05:15:39;;;;;;;19.10;5.10;;;8.80;87.40;;;;;;4993449;28;20039;-50
2022/11/24 05:18:11;;;;;;;22.35;3.63;;;8.90;87.30;;;;;;4992983;28;20432;-52
2022/11/24 05:20:37;;;;;;;30.52;4.85;;;8.90;87.10;;;;;;4992090;28;20033;-53
2022/11/24 05:23:05;;;;;;;18.42;3.58;;;8.90;87.30;;;;;;4992943;28;20030;-49
2022/11/24 05:25:31;;;;;;;21.05;5.07;;;8.90;87.30;;;;;;4992965;28;20113;-48
2022/11/24 05:28:01;;;;;;;18.48;4.13;;;8.90;87.40;;;;;;4992850;28;20110;-50
2022/11/24 05:30:27;;;;;;;17.67;3.92;;;8.90;87.50;;;;;;4992839;28;20022;-51
2022/11/24 05:32:53;;;;;;;22.30;6.20;;;8.80;87.40;;;;;;4993071;28;20107;-51
2022/11/24 05:35:19;;;;;;;25.58;4.78;;;8.90;87.30;;;;;;4991850;28;20061;-51
2022/11/24 05:37:46;;;;;;;20.38;5.30;;;9.00;87.10;;;;;;4993085;28;20030;-50
2022/11/24 05:40:12;;;;;;;14.60;3.38;;;8.90;87.20;;;;;;4992904;28;20064;-49
2022/11/24 05:42:41;;;;;;;20.15;4.28;;;8.80;87.10;;;;;;4992762;28;20389;-49
2022/11/24 05:45:19;;;;;;;30.25;5.65;;;8.90;87.30;;;;;;4992795;28;20510;-49
2022/11/24 05:47:45;;;;;;;13.85;3.40;;;8.90;86.90;;;;;;4992889;28;20382;-51
2022/11/24 05:50:12;;;;;;;21.48;4.53;;;8.90;87.00;;;;;;4992785;28;20026;-51
2022/11/24 05:52:38;;;;;;;23.88;3.50;;;9.00;86.90;;;;;;4993072;28;20479;-57
2022/11/24 05:55:05;;;;;;;21.85;4.38;;;9.00;86.80;;;;;;4992883;28;20033;-51
2022/11/24 05:57:31;;;;;;;18.08;5.47;;;9.10;86.60;;;;;;4993244;28;20027;-50
2022/11/24 06:00:06;;;;;;;20.92;4.93;;;9.10;86.20;;;;;;4991603;28;20099;-50
2022/11/24 06:02:32;;;;;;;20.02;3.35;;;9.10;86.30;;;;;;4992585;28;20478;-52
2022/11/24 06:04:57;;;;;;;11.50;3.35;;;9.10;86.20;;;;;;4992604;28;20037;-50
2022/11/24 06:07:23;;;;;;;28.05;4.00;;;9.20;86.20;;;;;;4992341;28;20144;-50
2022/11/24 06:09:49;;;;;;;20.23;3.38;;;9.30;85.70;;;;;;4992565;28;20034;-51
2022/11/24 06:12:15;;;;;;;24.35;4.13;;;9.20;85.40;;;;;;4992340;28;20080;-50
2022/11/24 06:14:41;;;;;;;14.70;3.60;;;9.20;85.60;;;;;;4991151;28;20033;-49
2022/11/24 06:17:06;;;;;;;26.98;5.90;;;9.20;85.60;;;;;;4992543;28;20485;-52
2022/11/24 06:19:32;;;;;;;27.73;4.20;;;9.10;85.90;;;;;;4992512;28;20103;-53
2022/11/24 06:21:58;;;;;;;14.40;4.03;;;9.10;85.80;;;;;;4992049;28;20517;-49
2022/11/24 06:24:23;;;;;;;16.45;4.07;;;9.10;86.10;;;;;;4992018;28;20075;-50
2022/11/24 06:26:49;;;;;;;19.48;4.68;;;9.10;85.90;;;;;;4992351;28;20034;-47
2022/11/24 06:29:15;;;;;;;10.80;3.33;;;9.20;85.90;;;;;;4992418;28;20026;-49
2022/11/24 06:31:40;;;;;;;24.40;5.50;;;9.20;85.60;;;;;;4992471;28;20022;-51
2022/11/24 06:34:10;;;;;;;18.38;4.47;;;9.20;85.50;;;;;;4992153;28;20101;-52
2022/11/24 06:36:36;;;;;;;20.67;4.40;;;9.20;85.70;;;;;;4992034;28;20382;-52
2022/11/24 06:39:02;;;;;;;22.20;4.68;;;9.20;85.50;;;;;;4992080;28;20033;-50
2022/11/24 06:41:28;;;;;;;15.50;3.65;;;9.20;85.50;;;;;;4991766;28;20136;-50
2022/11/24 06:43:54;;;;;;;21.83;4.40;;;9.10;85.60;;;;;;4992093;28;20026;-51
2022/11/24 06:46:19;;;;;;;25.05;6.68;;;9.10;85.50;;;;;;4991497;28;20034;-48
2022/11/24 06:48:46;;;;;;;18.23;4.90;;;9.10;85.50;;;;;;4991644;28;20034;-47
